createdAt,value
2016-02-15T00:00:04.894Z,986.13
2016-02-15T00:01:04.912Z,986.14
2016-02-15T00:02:04.930Z,986.13
2016-02-15T00:03:04.949Z,986.12
2016-02-15T00:04:04.967Z,986.1
2016-02-15T00:05:04.984Z,986.09
2016-02-15T00:06:05.004Z,986.1
2016-02-15T00:07:05.021Z,986.09
2016-02-15T00:08:05.040Z,986.08
2016-02-15T00:09:05.059Z,986.09
2016-02-15T00:10:05.076Z,986.11
2016-02-15T00:11:05.095Z,986.14
2016-02-15T00:12:05.114Z,986.12
2016-02-15T00:13:05.131Z,986.16
2016-02-15T00:14:05.150Z,986.15
2016-02-15T00:15:05.168Z,986.17
2016-02-15T00:16:05.187Z,986.2
2016-02-15T00:17:05.205Z,986.19
2016-02-15T00:18:05.223Z,986.26
2016-02-15T00:19:05.241Z,986.21
2016-02-15T00:20:05.261Z,986.24
2016-02-15T00:21:05.278Z,986.24
2016-02-15T00:22:05.296Z,986.28
2016-02-15T00:23:05.299Z,986.26
2016-02-15T00:24:05.317Z,986.28
2016-02-15T00:25:05.336Z,986.28
2016-02-15T00:26:05.369Z,986.25
2016-02-15T00:27:05.372Z,986.28
2016-02-15T00:28:05.407Z,986.29
2016-02-15T00:29:05.409Z,986.32
2016-02-15T00:30:05.427Z,986.31
2016-02-15T00:31:05.446Z,986.34
2016-02-15T00:32:05.495Z,986.34
2016-02-15T00:33:05.483Z,986.41
2016-02-15T00:34:05.501Z,986.41
2016-02-15T00:35:05.518Z,986.4
2016-02-15T00:36:05.538Z,986.41
2016-02-15T00:37:05.556Z,986.49
2016-02-15T00:38:05.573Z,986.51
2016-02-15T00:39:05.592Z,986.52
2016-02-15T00:40:05.610Z,986.54
2016-02-15T00:41:05.629Z,986.57
2016-02-15T00:42:05.647Z,986.6
2016-02-15T00:43:05.665Z,986.65
2016-02-15T00:44:05.684Z,986.65
2016-02-15T00:45:05.703Z,986.69
2016-02-15T00:46:05.705Z,986.71
2016-02-15T00:47:05.722Z,986.69
2016-02-15T00:48:05.742Z,986.69
2016-02-15T00:49:05.759Z,986.7
2016-02-15T00:50:05.778Z,986.69
2016-02-15T00:51:05.797Z,986.7
2016-02-15T00:52:05.814Z,986.7
2016-02-15T00:53:05.833Z,986.72
2016-02-15T00:54:05.852Z,986.75
2016-02-15T00:55:05.869Z,986.8
2016-02-15T00:56:05.888Z,986.85
2016-02-15T00:57:05.906Z,986.88
2016-02-15T00:58:05.925Z,986.87
2016-02-15T00:59:05.943Z,986.93
2016-02-15T01:00:05.960Z,986.97
2016-02-15T01:01:05.980Z,986.94
2016-02-15T01:02:06.013Z,986.98
2016-02-15T01:03:06.015Z,986.97
2016-02-15T01:04:06.034Z,987.04
2016-02-15T01:05:06.052Z,987.04
2016-02-15T01:06:06.071Z,987.09
2016-02-15T01:07:06.090Z,987.12
2016-02-15T01:08:06.092Z,987.15
2016-02-15T01:09:06.126Z,987.19
2016-02-15T01:10:06.129Z,987.19
2016-02-15T01:11:06.147Z,987.21
2016-02-15T01:12:06.163Z,987.21
2016-02-15T01:13:06.172Z,987.23
2016-02-15T01:14:06.178Z,987.21
2016-02-15T01:15:06.186Z,987.24
2016-02-15T01:16:06.193Z,987.29
2016-02-15T01:17:06.200Z,987.29
2016-02-15T01:18:06.215Z,987.3
2016-02-15T01:19:06.229Z,987.37
2016-02-15T01:20:06.242Z,987.36
2016-02-15T01:21:06.257Z,987.39
2016-02-15T01:22:14.256Z,987.36
2016-02-15T01:23:06.288Z,987.42
2016-02-15T01:24:06.290Z,987.4
2016-02-15T01:25:06.321Z,987.42
2016-02-15T01:26:06.322Z,987.45
2016-02-15T01:27:06.340Z,987.48
2016-02-15T01:28:06.358Z,987.5
2016-02-15T01:29:06.375Z,987.55
2016-02-15T01:30:06.409Z,987.53
2016-02-15T01:31:06.411Z,987.56
2016-02-15T01:32:06.430Z,987.56
2016-02-15T01:33:06.448Z,987.59
2016-02-15T01:34:06.465Z,987.62
2016-02-15T01:35:06.485Z,987.66
2016-02-15T01:36:06.503Z,987.62
2016-02-15T01:37:06.520Z,987.66
2016-02-15T01:38:06.540Z,987.65
2016-02-15T01:39:06.557Z,987.66
2016-02-15T01:40:06.576Z,987.64
2016-02-15T01:41:06.595Z,987.69
2016-02-15T01:42:06.612Z,987.68
2016-02-15T01:43:06.631Z,987.75
2016-02-15T01:44:06.634Z,987.72
2016-02-15T01:45:06.667Z,987.76
2016-02-15T01:46:06.670Z,987.78
2016-02-15T01:47:06.689Z,987.79
2016-02-15T01:48:06.706Z,987.77
2016-02-15T01:49:06.726Z,987.81
2016-02-15T01:50:06.744Z,987.8
2016-02-15T01:51:06.761Z,987.81
2016-02-15T01:52:06.796Z,987.78
2016-02-15T01:53:06.799Z,987.82
2016-02-15T01:54:06.816Z,987.82
2016-02-15T01:55:06.835Z,987.84
2016-02-15T01:56:06.853Z,987.87
2016-02-15T01:57:06.855Z,987.89
2016-02-15T01:58:06.891Z,987.87
2016-02-15T01:59:06.893Z,987.9
2016-02-15T02:00:06.926Z,987.93
2016-02-15T02:01:06.930Z,987.97
2016-02-15T02:02:06.963Z,987.97
2016-02-15T02:03:06.965Z,987.98
2016-02-15T02:04:06.985Z,988.01
2016-02-15T02:05:07.002Z,987.96
2016-02-15T02:06:07.021Z,987.97
2016-02-15T02:07:07.040Z,987.97
2016-02-15T02:08:07.057Z,988
2016-02-15T02:09:07.076Z,988.03
2016-02-15T02:10:07.095Z,988.05
2016-02-15T02:11:07.112Z,988.09
2016-02-15T02:12:07.131Z,988.13
2016-02-15T02:13:07.149Z,988.19
2016-02-15T02:14:07.151Z,988.19
2016-02-15T02:15:07.186Z,988.18
2016-02-15T02:16:07.189Z,988.22
2016-02-15T02:17:07.206Z,988.28
2016-02-15T02:18:07.225Z,988.3
2016-02-15T02:19:07.244Z,988.35
2016-02-15T02:20:07.261Z,988.34
2016-02-15T02:21:07.280Z,988.37
2016-02-15T02:22:07.298Z,988.36
2016-02-15T02:23:07.317Z,988.39
2016-02-15T02:24:07.335Z,988.37
2016-02-15T02:25:07.353Z,988.38
2016-02-15T02:26:07.355Z,988.4
2016-02-15T02:27:07.375Z,988.45
2016-02-15T02:28:07.393Z,988.47
2016-02-15T02:29:07.410Z,988.51
2016-02-15T02:30:07.445Z,988.45
2016-02-15T02:31:07.463Z,988.46
2016-02-15T02:32:07.466Z,988.46
2016-02-15T02:33:07.484Z,988.51
2016-02-15T02:34:07.502Z,988.55
2016-02-15T02:35:07.521Z,988.61
2016-02-15T02:36:07.540Z,988.58
2016-02-15T02:37:07.557Z,988.62
2016-02-15T02:38:07.576Z,988.59
2016-02-15T02:39:07.594Z,988.6
2016-02-15T02:40:07.596Z,988.63
2016-02-15T02:41:07.631Z,988.7
2016-02-15T02:42:07.649Z,988.72
2016-02-15T02:43:07.651Z,988.7
2016-02-15T02:44:07.670Z,988.65
2016-02-15T02:45:07.689Z,988.65
2016-02-15T02:46:07.706Z,988.65
2016-02-15T02:47:07.725Z,988.63
2016-02-15T02:48:07.743Z,988.58
2016-02-15T02:49:07.762Z,988.61
2016-02-15T02:50:07.780Z,988.68
2016-02-15T02:51:07.783Z,988.69
2016-02-15T02:52:07.800Z,988.74
2016-02-15T02:53:07.819Z,988.78
2016-02-15T02:54:07.838Z,988.8
2016-02-15T02:55:07.855Z,988.76
2016-02-15T02:56:07.874Z,988.73
2016-02-15T02:57:07.892Z,988.79
2016-02-15T02:58:07.911Z,988.85
2016-02-15T02:59:07.929Z,988.92
2016-02-15T03:00:07.947Z,988.95
2016-02-15T03:01:07.966Z,988.93
2016-02-15T03:02:07.984Z,988.98
2016-02-15T03:03:08.002Z,988.98
2016-02-15T03:04:08.004Z,989.01
2016-02-15T03:05:08.039Z,989.04
2016-02-15T03:06:08.057Z,989.08
2016-02-15T03:07:08.060Z,989.04
2016-02-15T03:08:08.079Z,989.12
2016-02-15T03:09:08.096Z,989.1
2016-02-15T03:10:08.115Z,989.15
2016-02-15T03:11:08.134Z,989.12
2016-02-15T03:12:08.151Z,989.2
2016-02-15T03:13:08.170Z,989.21
2016-02-15T03:14:08.187Z,989.18
2016-02-15T03:15:08.207Z,989.16
2016-02-15T03:16:08.225Z,989.18
2016-02-15T03:17:08.243Z,989.14
2016-02-15T03:18:08.245Z,989.17
2016-02-15T03:19:08.264Z,989.17
2016-02-15T03:20:08.283Z,989.2
2016-02-15T03:21:08.300Z,989.2
2016-02-15T03:22:08.319Z,989.19
2016-02-15T03:23:08.337Z,989.13
2016-02-15T03:24:08.356Z,989.13
2016-02-15T03:25:08.374Z,989.08
2016-02-15T03:26:08.392Z,989.08
2016-02-15T03:27:08.411Z,989.07
2016-02-15T03:28:08.430Z,989.11
2016-02-15T03:29:08.447Z,989.19
2016-02-15T03:30:08.465Z,989.17
2016-02-15T03:31:08.469Z,989.23
2016-02-15T03:32:08.486Z,989.32
2016-02-15T03:33:08.505Z,989.38
2016-02-15T03:34:08.523Z,989.41
2016-02-15T03:35:08.557Z,989.4
2016-02-15T03:36:08.560Z,989.47
2016-02-15T03:37:08.578Z,989.51
2016-02-15T03:38:08.596Z,989.55
2016-02-15T03:39:08.615Z,989.54
2016-02-15T03:40:08.633Z,989.56
2016-02-15T03:41:08.635Z,989.56
2016-02-15T03:42:08.670Z,989.61
2016-02-15T03:43:08.673Z,989.59
2016-02-15T03:44:08.690Z,989.64
2016-02-15T03:45:08.709Z,989.61
2016-02-15T03:46:08.728Z,989.61
2016-02-15T03:47:08.745Z,989.64
2016-02-15T03:48:08.764Z,989.64
2016-02-15T03:49:08.782Z,989.65
2016-02-15T03:50:08.801Z,989.65
2016-02-15T03:51:08.819Z,989.67
2016-02-15T03:52:08.853Z,989.67
2016-02-15T03:53:08.840Z,989.72
2016-02-15T03:54:08.859Z,989.68
2016-02-15T03:55:08.877Z,989.73
2016-02-15T03:56:08.894Z,989.74
2016-02-15T03:57:08.913Z,989.74
2016-02-15T03:58:08.931Z,989.74
2016-02-15T03:59:08.950Z,989.74
2016-02-15T04:00:08.968Z,989.76
2016-02-15T04:01:08.986Z,989.78
2016-02-15T04:02:09.005Z,989.76
2016-02-15T04:03:09.008Z,989.8
2016-02-15T04:04:09.026Z,989.82
2016-02-15T04:05:09.043Z,989.86
2016-02-15T04:06:09.063Z,989.9
2016-02-15T04:07:09.080Z,989.88
2016-02-15T04:08:09.099Z,989.94
2016-02-15T04:09:09.118Z,989.96
2016-02-15T04:10:09.135Z,990.01
2016-02-15T04:11:09.154Z,990.02
2016-02-15T04:12:09.173Z,989.99
2016-02-15T04:13:09.190Z,990
2016-02-15T04:14:09.193Z,989.98
2016-02-15T04:15:09.212Z,990.03
2016-02-15T04:16:09.229Z,990.03
2016-02-15T04:17:09.248Z,990.05
2016-02-15T04:18:09.267Z,990.09
2016-02-15T04:19:09.284Z,990.11
2016-02-15T04:20:09.303Z,990.16
2016-02-15T04:21:09.322Z,990.13
2016-02-15T04:22:09.339Z,990.15
2016-02-15T04:23:09.358Z,990.16
2016-02-15T04:24:09.376Z,990.2
2016-02-15T04:25:09.378Z,990.19
2016-02-15T04:26:09.398Z,990.18
2016-02-15T04:27:09.416Z,990.24
2016-02-15T04:28:09.433Z,990.22
2016-02-15T04:29:09.453Z,990.27
2016-02-15T04:30:09.486Z,990.28
2016-02-15T04:31:09.488Z,990.26
2016-02-15T04:32:09.508Z,990.28
2016-02-15T04:33:09.525Z,990.33
2016-02-15T04:34:09.544Z,990.3
2016-02-15T04:35:09.562Z,990.38
2016-02-15T04:36:09.565Z,990.37
2016-02-15T04:37:09.582Z,990.4
2016-02-15T04:38:09.602Z,990.39
2016-02-15T04:39:09.620Z,990.38
2016-02-15T04:40:09.637Z,990.41
2016-02-15T04:41:09.657Z,990.43
2016-02-15T04:42:09.674Z,990.5
2016-02-15T04:43:09.693Z,990.48
2016-02-15T04:44:09.712Z,990.49
2016-02-15T04:45:09.729Z,990.5
2016-02-15T04:46:09.748Z,990.52
2016-02-15T04:47:09.767Z,990.52
2016-02-15T04:48:09.769Z,990.56
2016-02-15T04:49:09.787Z,990.56
2016-02-15T04:50:09.806Z,990.58
2016-02-15T04:51:09.823Z,990.6
2016-02-15T04:52:09.843Z,990.57
2016-02-15T04:53:09.861Z,990.57
2016-02-15T04:54:09.878Z,990.59
2016-02-15T04:55:09.898Z,990.58
2016-02-15T04:56:09.916Z,990.59
2016-02-15T04:57:09.933Z,990.65
2016-02-15T04:58:09.952Z,990.71
2016-02-15T04:59:09.970Z,990.71
2016-02-15T05:00:09.972Z,990.78
2016-02-15T05:01:09.992Z,990.84
2016-02-15T05:02:10.010Z,990.87
2016-02-15T05:03:10.027Z,990.89
2016-02-15T05:04:10.047Z,990.93
2016-02-15T05:05:10.065Z,990.92
2016-02-15T05:06:10.082Z,990.89
2016-02-15T05:07:10.102Z,990.9
2016-02-15T05:08:10.119Z,990.9
2016-02-15T05:09:10.138Z,990.9
2016-02-15T05:10:10.141Z,990.92
2016-02-15T05:11:10.160Z,990.95
2016-02-15T05:12:10.177Z,990.92
2016-02-15T05:13:10.196Z,990.93
2016-02-15T05:14:10.214Z,990.94
2016-02-15T05:15:10.232Z,990.98
2016-02-15T05:16:10.251Z,991
2016-02-15T05:17:10.268Z,990.98
2016-02-15T05:18:10.287Z,991
2016-02-15T05:19:10.306Z,991.02
2016-02-15T05:20:10.323Z,991.05
2016-02-15T05:21:10.326Z,991.11
2016-02-15T05:22:10.345Z,991.08
2016-02-15T05:23:10.363Z,991.11
2016-02-15T05:24:10.381Z,991.15
2016-02-15T05:25:10.400Z,991.13
2016-02-15T05:26:10.417Z,991.18
2016-02-15T05:27:10.437Z,991.19
2016-02-15T05:28:10.455Z,991.2
2016-02-15T05:29:10.472Z,991.23
2016-02-15T05:30:10.492Z,991.22
2016-02-15T05:31:10.494Z,991.24
2016-02-15T05:32:10.528Z,991.23
2016-02-15T05:33:10.530Z,991.31
2016-02-15T05:34:10.549Z,991.34
2016-02-15T05:35:10.567Z,991.39
2016-02-15T05:36:10.586Z,991.4
2016-02-15T05:37:10.604Z,991.45
2016-02-15T05:38:10.621Z,991.45
2016-02-15T05:39:10.641Z,991.5
2016-02-15T05:40:10.659Z,991.52
2016-02-15T05:41:10.676Z,991.53
2016-02-15T05:42:10.695Z,991.52
2016-02-15T05:43:10.698Z,991.56
2016-02-15T05:44:10.732Z,991.6
2016-02-15T05:45:10.735Z,991.69
2016-02-15T05:46:10.753Z,991.7
2016-02-15T05:47:10.771Z,991.72
2016-02-15T05:48:10.790Z,991.78
2016-02-15T05:49:10.808Z,991.8
2016-02-15T05:50:10.826Z,991.81
2016-02-15T05:51:10.845Z,991.82
2016-02-15T05:52:10.863Z,991.81
2016-02-15T05:53:10.865Z,991.88
2016-02-15T05:54:10.884Z,991.88
2016-02-15T05:55:10.903Z,991.91
2016-02-15T05:56:10.920Z,991.9
2016-02-15T05:57:10.939Z,991.88
2016-02-15T05:58:10.958Z,991.89
2016-02-15T05:59:10.975Z,991.93
2016-02-15T06:00:10.994Z,991.96
2016-02-15T06:01:11.011Z,991.94
2016-02-15T06:02:11.031Z,991.95
2016-02-15T06:03:11.033Z,991.98
2016-02-15T06:04:11.052Z,992.04
2016-02-15T06:05:11.069Z,992.08
2016-02-15T06:06:11.088Z,992.07
2016-02-15T06:07:11.107Z,992.11
2016-02-15T06:08:11.124Z,992.1
2016-02-15T06:09:11.143Z,992.1
2016-02-15T06:10:11.161Z,992.14
2016-02-15T06:11:11.180Z,992.16
2016-02-15T06:12:11.198Z,992.2
2016-02-15T06:13:11.216Z,992.2
2016-02-15T06:14:11.234Z,992.22
2016-02-15T06:15:11.238Z,992.23
2016-02-15T06:16:11.256Z,992.22
2016-02-15T06:17:11.273Z,992.24
2016-02-15T06:18:11.293Z,992.29
2016-02-15T06:19:11.326Z,992.34
2016-02-15T06:20:11.345Z,992.39
2016-02-15T06:21:11.347Z,992.4
2016-02-15T06:22:11.365Z,992.39
2016-02-15T06:23:11.384Z,992.46
2016-02-15T06:24:11.403Z,992.48
2016-02-15T06:25:11.420Z,992.5
2016-02-15T06:26:11.438Z,992.55
2016-02-15T06:27:11.442Z,992.53
2016-02-15T06:28:11.459Z,992.61
2016-02-15T06:29:11.478Z,992.53
2016-02-15T06:30:11.512Z,992.57
2016-02-15T06:31:11.514Z,992.58
2016-02-15T06:32:11.533Z,992.58
2016-02-15T06:33:11.552Z,992.57
2016-02-15T06:34:11.569Z,992.57
2016-02-15T06:35:11.588Z,992.64
2016-02-15T06:36:11.591Z,992.58
2016-02-15T06:37:11.608Z,992.63
2016-02-15T06:38:11.628Z,992.63
2016-02-15T06:39:11.646Z,992.69
2016-02-15T06:40:11.663Z,992.7
2016-02-15T06:41:11.683Z,992.72
2016-02-15T06:42:11.701Z,992.7
2016-02-15T06:43:11.718Z,992.75
2016-02-15T06:44:11.737Z,992.82
2016-02-15T06:45:11.755Z,992.83
2016-02-15T06:46:11.773Z,992.78
2016-02-15T06:47:11.777Z,992.83
2016-02-15T06:48:11.795Z,992.84
2016-02-15T06:49:11.812Z,992.86
2016-02-15T06:50:11.832Z,992.88
2016-02-15T06:51:11.850Z,992.92
2016-02-15T06:52:11.867Z,992.89
2016-02-15T06:53:11.887Z,992.94
2016-02-15T06:54:11.904Z,992.94
2016-02-15T06:55:11.923Z,992.96
2016-02-15T06:56:11.942Z,993
2016-02-15T06:57:11.959Z,993.02
2016-02-15T06:58:11.962Z,993.05
2016-02-15T06:59:11.981Z,993.06
2016-02-15T07:00:11.999Z,993.05
2016-02-15T07:01:12.017Z,993.07
2016-02-15T07:02:12.036Z,993.1
2016-02-15T07:03:12.053Z,993.16
2016-02-15T07:04:12.072Z,993.17
2016-02-15T07:05:12.091Z,993.18
2016-02-15T07:06:12.108Z,993.23
2016-02-15T07:07:12.127Z,993.23
2016-02-15T07:08:12.146Z,993.27
2016-02-15T07:09:12.148Z,993.31
2016-02-15T07:10:12.166Z,993.3
2016-02-15T07:11:12.185Z,993.31
2016-02-15T07:12:12.202Z,993.33
2016-02-15T07:13:12.222Z,993.34
2016-02-15T07:14:12.240Z,993.35
2016-02-15T07:15:12.257Z,993.37
2016-02-15T07:16:12.277Z,993.35
2016-02-15T07:17:12.295Z,993.41
2016-02-15T07:18:12.298Z,993.41
2016-02-15T07:19:12.331Z,993.44
2016-02-15T07:20:12.334Z,993.44
2016-02-15T07:21:12.352Z,993.38
2016-02-15T07:22:12.371Z,993.36
2016-02-15T07:23:12.390Z,993.37
2016-02-15T07:24:12.406Z,993.47
2016-02-15T07:25:12.426Z,993.5
2016-02-15T07:26:12.444Z,993.6
2016-02-15T07:27:12.461Z,993.68
2016-02-15T07:28:12.495Z,993.73
2016-02-15T07:29:12.483Z,993.77
2016-02-15T07:30:12.501Z,993.8
2016-02-15T07:31:12.520Z,993.84
2016-02-15T07:32:12.538Z,993.86
2016-02-15T07:33:12.556Z,993.88
2016-02-15T07:34:12.575Z,993.89
2016-02-15T07:35:12.593Z,993.87
2016-02-15T07:36:12.611Z,993.89
2016-02-15T07:37:12.630Z,993.88
2016-02-15T07:38:12.647Z,993.91
2016-02-15T07:39:12.667Z,993.91
2016-02-15T07:40:12.669Z,993.92
2016-02-15T07:41:12.703Z,993.9
2016-02-15T07:42:12.705Z,993.92
2016-02-15T07:43:12.724Z,993.97
2016-02-15T07:44:12.743Z,993.96
2016-02-15T07:45:12.760Z,993.96
2016-02-15T07:46:12.779Z,994
2016-02-15T07:47:12.796Z,994
2016-02-15T07:48:12.816Z,994.04
2016-02-15T07:49:12.834Z,994.06
2016-02-15T07:50:12.852Z,994.08
2016-02-15T07:51:12.870Z,994.13
2016-02-15T07:52:12.873Z,994.21
2016-02-15T07:53:12.907Z,994.2
2016-02-15T07:54:12.909Z,994.24
2016-02-15T07:55:12.928Z,994.27
2016-02-15T07:56:12.946Z,994.31
2016-02-15T07:57:12.965Z,994.32
2016-02-15T07:58:12.983Z,994.39
2016-02-15T07:59:13.001Z,994.38
2016-02-15T08:00:13.020Z,994.38
2016-02-15T08:01:13.038Z,994.39
2016-02-15T08:02:13.056Z,994.4
2016-02-15T08:03:13.075Z,994.39
2016-02-15T08:04:13.093Z,994.42
2016-02-15T08:05:13.095Z,994.44
2016-02-15T08:06:13.130Z,994.44
2016-02-15T08:07:13.132Z,994.48
2016-02-15T08:08:13.150Z,994.49
2016-02-15T08:09:13.169Z,994.54
2016-02-15T08:10:13.187Z,994.57
2016-02-15T08:11:13.205Z,994.56
2016-02-15T08:12:13.224Z,994.56
2016-02-15T08:13:13.242Z,994.6
2016-02-15T08:14:13.261Z,994.57
2016-02-15T08:15:13.279Z,994.61
2016-02-15T08:16:13.296Z,994.66
2016-02-15T08:17:13.316Z,994.65
2016-02-15T08:18:13.334Z,994.7
2016-02-15T08:19:13.337Z,994.73
2016-02-15T08:20:13.354Z,994.76
2016-02-15T08:21:13.373Z,994.77
2016-02-15T08:22:13.391Z,994.8
2016-02-15T08:23:13.410Z,994.85
2016-02-15T08:24:13.428Z,994.87
2016-02-15T08:25:13.445Z,994.87
2016-02-15T08:26:13.465Z,994.9
2016-02-15T08:27:13.483Z,994.9
2016-02-15T08:28:13.500Z,994.9
2016-02-15T08:29:13.520Z,994.96
2016-02-15T08:30:13.522Z,994.97
2016-02-15T08:31:13.556Z,994.94
2016-02-15T08:32:13.558Z,994.97
2016-02-15T08:33:13.577Z,994.99
2016-02-15T08:34:13.595Z,994.97
2016-02-15T08:35:13.630Z,994.98
2016-02-15T08:36:13.633Z,994.97
2016-02-15T08:37:13.650Z,994.95
2016-02-15T08:38:13.668Z,994.97
2016-02-15T08:39:13.686Z,995
2016-02-15T08:40:13.706Z,995.01
2016-02-15T08:41:13.724Z,994.96
2016-02-15T08:42:13.741Z,995.02
2016-02-15T08:43:13.761Z,995.07
2016-02-15T08:44:13.779Z,995.11
2016-02-15T08:45:13.797Z,995.13
2016-02-15T08:46:13.815Z,995.18
2016-02-15T08:47:13.818Z,995.14
2016-02-15T08:48:13.835Z,995.18
2016-02-15T08:49:13.855Z,995.21
2016-02-15T08:50:13.873Z,995.26
2016-02-15T08:51:13.890Z,995.25
2016-02-15T08:52:13.910Z,995.32
2016-02-15T08:53:13.928Z,995.33
2016-02-15T08:54:13.945Z,995.36
2016-02-15T08:55:14.230Z,995.36
2016-02-15T08:56:13.982Z,995.39
2016-02-15T08:57:14.001Z,995.41
2016-02-15T08:58:14.020Z,995.43
2016-02-15T08:59:14.037Z,995.45
2016-02-15T09:00:14.056Z,995.51
2016-02-15T09:01:14.075Z,995.53
2016-02-15T09:02:14.092Z,995.5
2016-02-15T09:03:14.111Z,995.54
2016-02-15T09:04:14.128Z,995.54
2016-02-15T09:05:14.148Z,995.58
2016-02-15T09:06:14.166Z,995.61
2016-02-15T09:07:14.184Z,995.59
2016-02-15T09:08:14.186Z,995.64
2016-02-15T09:09:14.205Z,995.61
2016-02-15T09:10:14.224Z,995.67
2016-02-15T09:11:14.241Z,995.67
2016-02-15T09:12:14.260Z,995.71
2016-02-15T09:13:14.278Z,995.72
2016-02-15T09:14:14.297Z,995.74
2016-02-15T09:15:14.319Z,995.79
2016-02-15T09:16:14.337Z,995.79
2016-02-15T09:17:14.356Z,995.84
2016-02-15T09:18:14.373Z,995.86
2016-02-15T09:19:14.392Z,995.88
2016-02-15T09:20:14.411Z,995.94
2016-02-15T09:21:14.428Z,995.97
2016-02-15T09:22:14.447Z,995.97
2016-02-15T09:23:14.466Z,996.03
2016-02-15T09:24:14.483Z,996.05
2016-02-15T09:25:14.502Z,996.08
2016-02-15T09:26:14.520Z,996.1
2016-02-15T09:27:14.538Z,996.13
2016-02-15T09:28:14.541Z,996.16
2016-02-15T09:29:14.575Z,996.17
2016-02-15T09:30:14.577Z,996.16
2016-02-15T09:31:14.596Z,996.21
2016-02-15T09:32:14.615Z,996.25
2016-02-15T09:33:14.632Z,996.22
2016-02-15T09:34:14.651Z,996.27
2016-02-15T09:35:14.669Z,996.35
2016-02-15T09:36:14.688Z,996.31
2016-02-15T09:37:14.706Z,996.35
2016-02-15T09:38:14.724Z,996.43
2016-02-15T09:39:14.742Z,996.43
2016-02-15T09:40:14.761Z,996.48
2016-02-15T09:41:14.779Z,996.49
2016-02-15T09:42:14.798Z,996.54
2016-02-15T09:43:14.815Z,996.55
2016-02-15T09:44:14.835Z,996.58
2016-02-15T09:45:14.853Z,996.59
2016-02-15T09:46:14.870Z,996.6
2016-02-15T09:47:14.890Z,996.6
2016-02-15T09:48:14.908Z,996.55
2016-02-15T09:49:14.925Z,996.57
2016-02-15T09:50:14.945Z,996.59
2016-02-15T09:51:14.962Z,996.59
2016-02-15T09:52:14.981Z,996.65
2016-02-15T09:53:15.000Z,996.65
2016-02-15T09:54:15.017Z,996.66
2016-02-15T09:55:15.036Z,996.7
2016-02-15T09:56:15.054Z,996.75
2016-02-15T09:57:15.072Z,996.78
2016-02-15T09:58:15.091Z,996.81
2016-02-15T09:59:15.108Z,996.86
2016-02-15T10:00:15.128Z,996.89
2016-02-15T10:01:15.146Z,996.89
2016-02-15T10:02:15.180Z,996.9
2016-02-15T10:03:15.198Z,996.94
2016-02-15T10:04:15.232Z,996.99
2016-02-15T10:05:15.219Z,996.96
2016-02-15T10:06:15.237Z,996.99
2016-02-15T10:07:15.255Z,997.01
2016-02-15T10:08:15.274Z,997.02
2016-02-15T10:09:15.293Z,997
2016-02-15T10:10:15.310Z,997.05
2016-02-15T10:11:15.313Z,997.03
2016-02-15T10:12:15.331Z,997.09
2016-02-15T10:13:15.365Z,997.13
2016-02-15T10:14:15.367Z,997.12
2016-02-15T10:15:15.402Z,997.14
2016-02-15T10:16:15.420Z,997.17
2016-02-15T10:17:15.423Z,997.2
2016-02-15T10:18:15.440Z,997.24
2016-02-15T10:19:15.460Z,997.26
2016-02-15T10:20:15.450Z,997.27
2016-02-15T10:21:15.471Z,997.28
2016-02-15T10:22:15.460Z,997.3
2016-02-15T10:23:15.467Z,997.38
2016-02-15T10:24:15.496Z,997.38
2016-02-15T10:25:15.495Z,997.36
2016-02-15T10:26:15.509Z,997.44
2016-02-15T10:27:15.521Z,997.43
2016-02-15T10:28:15.536Z,997.42
2016-02-15T10:29:15.553Z,997.48
2016-02-15T10:30:15.568Z,997.49
2016-02-15T10:31:15.585Z,997.56
2016-02-15T10:32:15.601Z,997.55
2016-02-15T10:33:15.618Z,997.56
2016-02-15T10:34:15.636Z,997.61
2016-02-15T10:35:15.653Z,997.6
2016-02-15T10:36:15.672Z,997.61
2016-02-15T10:37:15.690Z,997.61
2016-02-15T10:38:15.707Z,997.64
2016-02-15T10:39:15.726Z,997.68
2016-02-15T10:40:15.743Z,997.68
2016-02-15T10:41:15.762Z,997.66
2016-02-15T10:42:15.780Z,997.75
2016-02-15T10:43:15.797Z,997.73
2016-02-15T10:44:15.816Z,997.74
2016-02-15T10:45:15.834Z,997.74
2016-02-15T10:46:15.852Z,997.74
2016-02-15T10:47:15.871Z,997.79
2016-02-15T10:48:15.888Z,997.85
2016-02-15T10:49:15.908Z,997.8
2016-02-15T10:50:15.926Z,997.85
2016-02-15T10:51:15.943Z,997.87
2016-02-15T10:52:15.963Z,997.95
2016-02-15T10:53:15.981Z,997.93
2016-02-15T10:54:15.998Z,997.96
2016-02-15T10:55:16.018Z,997.95
2016-02-15T10:56:16.035Z,997.97
2016-02-15T10:57:16.054Z,997.96
2016-02-15T10:58:16.073Z,998
2016-02-15T10:59:16.090Z,998.03
2016-02-15T11:00:16.125Z,998.05
2016-02-15T11:01:16.127Z,998.11
2016-02-15T11:02:16.145Z,998.11
2016-02-15T11:03:16.164Z,998.12
2016-02-15T11:04:16.181Z,998.13
2016-02-15T11:05:16.201Z,998.19
2016-02-15T11:06:16.219Z,998.2
2016-02-15T11:07:16.236Z,998.23
2016-02-15T11:08:16.256Z,998.26
2016-02-15T11:09:16.274Z,998.28
2016-02-15T11:10:16.291Z,998.29
2016-02-15T11:11:16.311Z,998.33
2016-02-15T11:12:16.344Z,998.34
2016-02-15T11:13:16.347Z,998.36
2016-02-15T11:14:16.366Z,998.42
2016-02-15T11:15:16.383Z,998.35
2016-02-15T11:16:16.402Z,998.46
2016-02-15T11:17:16.420Z,998.44
2016-02-15T11:18:16.438Z,998.5
2016-02-15T11:19:16.457Z,998.55
2016-02-15T11:20:16.474Z,998.57
2016-02-15T11:21:16.494Z,998.59
2016-02-15T11:22:16.512Z,998.57
2016-02-15T11:23:16.529Z,998.65
2016-02-15T11:24:16.549Z,998.63
2016-02-15T11:25:16.567Z,998.65
2016-02-15T11:26:16.584Z,998.64
2016-02-15T11:27:16.604Z,998.68
2016-02-15T11:28:16.621Z,998.71
2016-02-15T11:29:16.640Z,998.7
2016-02-15T11:30:16.659Z,998.74
2016-02-15T11:31:16.676Z,998.72
2016-02-15T11:32:16.695Z,998.72
2016-02-15T11:33:16.713Z,998.7
2016-02-15T11:34:16.731Z,998.75
2016-02-15T11:35:16.750Z,998.75
2016-02-15T11:36:16.767Z,998.77
2016-02-15T11:37:16.803Z,998.77
2016-02-15T11:38:16.805Z,998.83
2016-02-15T11:39:16.822Z,998.82
2016-02-15T11:40:16.841Z,998.82
2016-02-15T11:41:16.860Z,998.83
2016-02-15T11:42:16.878Z,998.82
2016-02-15T11:43:16.896Z,998.84
2016-02-15T11:44:16.914Z,998.81
2016-02-15T11:45:16.933Z,998.82
2016-02-15T11:46:16.952Z,998.82
2016-02-15T11:47:16.954Z,998.84
2016-02-15T11:48:16.988Z,998.84
2016-02-15T11:49:17.007Z,998.85
2016-02-15T11:50:17.024Z,998.88
2016-02-15T11:51:17.027Z,998.92
2016-02-15T11:52:17.061Z,998.93
2016-02-15T11:53:17.079Z,998.98
2016-02-15T11:54:17.098Z,998.97
2016-02-15T11:55:17.101Z,998.95
2016-02-15T11:56:17.134Z,998.96
2016-02-15T11:57:17.137Z,998.97
2016-02-15T11:58:17.171Z,999
2016-02-15T11:59:17.173Z,999.04
2016-02-15T12:00:17.192Z,999.05
2016-02-15T12:01:17.210Z,999.08
2016-02-15T12:02:17.229Z,999.07
2016-02-15T12:03:17.247Z,999.09
2016-02-15T12:04:17.265Z,999.07
2016-02-15T12:05:17.300Z,999.12
2016-02-15T12:06:17.302Z,999.16
2016-02-15T12:07:17.336Z,999.19
2016-02-15T12:08:17.339Z,999.16
2016-02-15T12:09:17.356Z,999.17
2016-02-15T12:10:17.375Z,999.21
2016-02-15T12:11:17.409Z,999.22
2016-02-15T12:12:17.411Z,999.21
2016-02-15T12:13:17.446Z,999.24
2016-02-15T12:14:17.464Z,999.27
2016-02-15T12:15:17.483Z,999.33
2016-02-15T12:16:17.485Z,999.34
2016-02-15T12:17:17.503Z,999.34
2016-02-15T12:18:17.522Z,999.4
2016-02-15T12:19:17.541Z,999.38
2016-02-15T12:20:17.558Z,999.37
2016-02-15T12:21:17.593Z,999.42
2016-02-15T12:22:17.596Z,999.43
2016-02-15T12:23:17.629Z,999.4
2016-02-15T12:24:17.647Z,999.45
2016-02-15T12:25:17.650Z,999.42
2016-02-15T12:26:17.684Z,999.42
2016-02-15T12:27:17.687Z,999.43
2016-02-15T12:28:17.720Z,999.41
2016-02-15T12:29:17.723Z,999.39
2016-02-15T12:30:17.742Z,999.41
2016-02-15T12:31:17.759Z,999.42
2016-02-15T12:32:17.778Z,999.46